Terminal Aerodrome Forecast
Issued by NWS

Home | Current Version | Previous Version | Text Only | Print | Product List | Glossary On
Versions: 1 2 3 4 5 6 7 8 9 10 11 12 13 14 15 16 17 18 19 20 21 22 23 24 25 26 27 28 29 30 31 32 33 34 35 36 37
253
FTUS46 KOTX 270520
TAFCOE
TAF
KCOE 270520Z 2706/2806 20005KT P6SM -SHRA SCT006 OVC025
     FM270700 20010KT 6SM BR FEW004 BKN020 OVC035
     FM271200 21010KT P6SM OVC015
     FM271800 22011KT P6SM -SHRA BKN025 OVC040=

USA.gov is the U.S. government's official web portal to all federal, state and local government web resources and services.